createdAt,value
2022-10-15T00:01:12.519Z,1.41
2022-10-15T00:03:41.661Z,1.41
2022-10-15T00:06:12.321Z,1.40
2022-10-15T00:08:40.962Z,1.37
2022-10-15T00:11:10.862Z,1.34
2022-10-15T00:13:42.001Z,1.29
2022-10-15T00:16:16.719Z,1.28
2022-10-15T00:18:45.161Z,1.25
2022-10-15T00:21:15.129Z,1.20
2022-10-15T00:23:42.820Z,1.18
2022-10-15T00:26:21.192Z,1.19
2022-10-15T00:28:52.982Z,1.16
2022-10-15T00:31:24.700Z,1.12
2022-10-15T00:33:53.783Z,1.11
2022-10-15T00:36:25.655Z,1.07
2022-10-15T00:38:53.624Z,1.04
2022-10-15T00:41:28.415Z,1.05
2022-10-15T00:43:58.377Z,1.01
2022-10-15T00:46:36.099Z,0.97
2022-10-15T00:49:14.098Z,0.95
2022-10-15T00:51:49.989Z,0.92
2022-10-15T00:54:17.734Z,0.94
2022-10-15T00:56:46.889Z,0.93
2022-10-15T00:59:14.665Z,0.91
2022-10-15T01:01:42.318Z,0.90
2022-10-15T01:04:10.020Z,0.88
2022-10-15T01:06:37.808Z,0.85
2022-10-15T01:09:05.473Z,0.84
2022-10-15T01:11:50.665Z,0.81
2022-10-15T01:14:54.708Z,0.80
2022-10-15T01:17:38.436Z,0.79
2022-10-15T01:20:27.490Z,0.78
2022-10-15T01:23:23.629Z,0.75
2022-10-15T01:26:31.936Z,0.74
2022-10-15T01:29:30.292Z,0.71
2022-10-15T01:32:07.991Z,0.70
2022-10-15T01:34:57.456Z,0.66
2022-10-15T01:37:50.950Z,0.66
2022-10-15T01:40:23.801Z,0.67
2022-10-15T01:42:58.041Z,0.72
2022-10-15T01:46:05.321Z,0.77
2022-10-15T01:48:44.552Z,0.77
2022-10-15T01:51:13.130Z,0.75
2022-10-15T01:53:41.918Z,0.77
2022-10-15T01:56:11.825Z,0.82
2022-10-15T01:58:41.563Z,0.89
2022-10-15T02:01:09.910Z,0.91
2022-10-15T02:04:16.625Z,0.92
2022-10-15T02:06:45.533Z,0.89
2022-10-15T02:09:22.975Z,0.89
2022-10-15T02:12:15.482Z,0.83
2022-10-15T02:14:46.548Z,0.82
2022-10-15T02:17:14.362Z,0.78
2022-10-15T02:19:53.227Z,0.73
2022-10-15T02:22:25.569Z,0.71
2022-10-15T02:24:58.420Z,0.67
2022-10-15T02:27:26.849Z,0.71
2022-10-15T02:29:55.219Z,0.64
2022-10-15T02:32:25.662Z,0.61
2022-10-15T02:34:53.888Z,0.62
2022-10-15T02:37:23.878Z,0.58
2022-10-15T02:39:51.500Z,0.57
2022-10-15T02:42:19.521Z,0.53
2022-10-15T02:44:54.893Z,0.53
2022-10-15T02:47:22.730Z,0.48
2022-10-15T02:49:50.378Z,0.44
2022-10-15T02:52:18.172Z,0.40
2022-10-15T02:54:47.444Z,0.38
2022-10-15T02:57:15.667Z,0.36
2022-10-15T02:59:44.628Z,0.32
2022-10-15T03:02:15.385Z,0.31
2022-10-15T03:04:46.850Z,0.31
2022-10-15T03:07:15.524Z,0.31
2022-10-15T03:09:43.724Z,0.28
2022-10-15T03:12:12.139Z,0.24
2022-10-15T03:14:39.976Z,0.21
2022-10-15T03:17:07.763Z,0.17
2022-10-15T03:19:36.165Z,0.14
2022-10-15T03:22:06.734Z,0.14
2022-10-15T03:24:43.393Z,0.13
2022-10-15T03:27:12.011Z,0.10
2022-10-15T03:29:40.327Z,0.05
2022-10-15T03:32:08.871Z,0.05
2022-10-15T03:34:37.613Z,0.03
2022-10-15T03:37:06.143Z,-0.02
2022-10-15T03:39:33.868Z,-0.05
2022-10-15T03:42:04.677Z,-0.06
2022-10-15T03:44:38.505Z,-0.07
2022-10-15T03:47:14.692Z,-0.11
2022-10-15T03:49:50.001Z,-0.11
2022-10-15T03:52:18.107Z,-0.13
2022-10-15T03:54:47.698Z,-0.14
2022-10-15T03:57:18.784Z,-0.17
2022-10-15T03:59:52.049Z,-0.20
2022-10-15T04:02:22.052Z,-0.22
2022-10-15T04:04:53.013Z,-0.23
2022-10-15T04:07:21.492Z,-0.21
2022-10-15T04:09:49.601Z,-0.21
2022-10-15T04:12:28.423Z,-0.18
2022-10-15T04:14:59.484Z,-0.13
2022-10-15T04:17:27.092Z,-0.09
2022-10-15T04:19:55.919Z,-0.10
2022-10-15T04:22:23.829Z,-0.06
2022-10-15T04:24:57.308Z,-0.04
2022-10-15T04:27:27.669Z,0.03
2022-10-15T04:30:04.166Z,0.09
2022-10-15T04:32:32.382Z,0.15
2022-10-15T04:35:00.912Z,0.22
2022-10-15T04:37:47.772Z,0.30
2022-10-15T04:40:16.259Z,0.43
2022-10-15T04:42:43.811Z,0.55
2022-10-15T04:45:12.394Z,0.71
2022-10-15T04:47:41.310Z,0.83
2022-10-15T04:50:12.652Z,0.97
2022-10-15T04:52:59.738Z,1.11
2022-10-15T04:55:31.068Z,1.22
2022-10-15T04:58:00.722Z,1.36
2022-10-15T05:00:32.126Z,1.48
2022-10-15T05:03:09.507Z,1.59
2022-10-15T05:06:11.133Z,1.72
2022-10-15T05:08:44.302Z,1.85
2022-10-15T05:11:26.260Z,2.01
2022-10-15T05:13:56.964Z,2.13
2022-10-15T05:16:26.975Z,2.30
2022-10-15T05:18:56.923Z,2.43
2022-10-15T05:21:25.208Z,2.59
2022-10-15T05:23:57.542Z,2.71
2022-10-15T05:26:49.149Z,2.89
2022-10-15T05:29:17.234Z,2.99
2022-10-15T05:31:44.891Z,3.17
2022-10-15T05:34:19.182Z,3.33
2022-10-15T05:36:55.576Z,3.51
2022-10-15T05:39:25.372Z,3.68
2022-10-15T05:41:54.795Z,3.86
2022-10-15T05:44:32.587Z,4.05
2022-10-15T05:47:00.893Z,4.29
2022-10-15T05:49:28.958Z,4.49
2022-10-15T05:52:19.177Z,4.72
2022-10-15T05:55:05.929Z,4.88
2022-10-15T05:57:33.741Z,5.01
2022-10-15T06:00:08.124Z,5.16
2022-10-15T06:05:21.745Z,5.39
2022-10-15T06:07:52.389Z,5.52
2022-10-15T06:10:20.107Z,5.66
2022-10-15T06:12:58.799Z,5.72
2022-10-15T06:15:27.953Z,5.83
2022-10-15T06:17:55.709Z,5.94
2022-10-15T06:20:28.421Z,5.99
2022-10-15T06:23:00.066Z,6.11
2022-10-15T06:25:28.036Z,6.19
2022-10-15T06:27:56.033Z,6.30
2022-10-15T06:30:28.133Z,6.42
2022-10-15T06:32:55.921Z,6.45
2022-10-15T06:35:23.959Z,6.63
2022-10-15T06:37:51.768Z,6.76
2022-10-15T06:40:19.566Z,6.87
2022-10-15T06:42:49.090Z,7.04
2022-10-15T06:45:20.931Z,7.16
2022-10-15T06:47:49.624Z,7.21
2022-10-15T06:50:17.193Z,7.30
2022-10-15T06:52:45.041Z,7.40
2022-10-15T06:55:12.641Z,7.42
2022-10-15T06:57:43.191Z,7.54
2022-10-15T07:00:17.165Z,7.59
2022-10-15T07:02:44.980Z,7.60
2022-10-15T07:05:13.279Z,7.68
2022-10-15T07:07:41.143Z,7.73
2022-10-15T07:10:09.307Z,7.86
2022-10-15T07:12:41.677Z,7.92
2022-10-15T07:15:09.775Z,8.00
2022-10-15T07:17:39.470Z,8.11
2022-10-15T07:20:07.935Z,8.26
2022-10-15T07:22:35.647Z,8.38
2022-10-15T07:25:03.577Z,8.38
2022-10-15T07:27:31.404Z,8.58
2022-10-15T07:30:01.665Z,8.73
2022-10-15T07:32:29.580Z,8.83
2022-10-15T07:34:57.612Z,8.98
2022-10-15T07:37:26.353Z,9.06
2022-10-15T07:39:55.310Z,9.03
2022-10-15T07:42:23.027Z,9.26
2022-10-15T07:44:50.634Z,9.30
2022-10-15T07:47:18.274Z,9.39
2022-10-15T07:49:46.063Z,9.45
2022-10-15T07:52:14.469Z,9.55
2022-10-15T07:54:42.085Z,9.51
2022-10-15T07:57:12.219Z,9.67
2022-10-15T07:59:40.090Z,9.85
2022-10-15T08:02:17.026Z,9.93
2022-10-15T08:04:46.666Z,10.09
2022-10-15T08:07:14.270Z,10.18
2022-10-15T08:09:42.163Z,10.23
2022-10-15T08:12:12.143Z,10.27
2022-10-15T08:14:40.580Z,10.34
2022-10-15T08:17:15.369Z,10.45
2022-10-15T08:19:44.040Z,10.50
2022-10-15T08:22:13.455Z,10.68
2022-10-15T08:24:41.427Z,10.73
2022-10-15T08:27:09.062Z,10.80
2022-10-15T08:29:38.486Z,10.86
2022-10-15T08:32:06.094Z,10.98
2022-10-15T08:34:34.141Z,11.04
2022-10-15T08:37:03.387Z,11.12
2022-10-15T08:39:35.884Z,11.30
2022-10-15T08:42:06.204Z,11.24
2022-10-15T08:44:38.634Z,11.34
2022-10-15T08:47:46.401Z,11.42
2022-10-15T08:50:26.042Z,11.44
2022-10-15T08:52:54.045Z,11.47
2022-10-15T08:57:55.757Z,11.51
2022-10-15T09:00:32.152Z,11.72
2022-10-15T09:02:59.840Z,11.86
2022-10-15T09:05:33.289Z,12.02
2022-10-15T09:08:27.156Z,12.02
2022-10-15T09:11:00.800Z,12.21
2022-10-15T09:13:31.047Z,12.29
2022-10-15T09:16:14.910Z,12.22
2022-10-15T09:18:46.763Z,12.27
2022-10-15T09:21:15.123Z,12.27
2022-10-15T09:23:43.990Z,12.10
2022-10-15T09:26:52.028Z,12.02
2022-10-15T09:29:28.141Z,12.07
2022-10-15T09:32:04.516Z,12.07
2022-10-15T09:34:38.944Z,12.04
2022-10-15T09:37:12.153Z,12.20
2022-10-15T09:39:54.614Z,12.18
2022-10-15T09:42:38.770Z,12.15
2022-10-15T09:45:10.337Z,12.27
2022-10-15T09:47:40.650Z,12.19
2022-10-15T09:50:11.712Z,12.22
2022-10-15T09:52:58.754Z,12.40
2022-10-15T09:55:49.460Z,12.54
2022-10-15T09:58:21.891Z,12.57
2022-10-15T10:01:01.280Z,12.61
2022-10-15T10:03:36.033Z,12.71
2022-10-15T10:06:11.363Z,12.75
2022-10-15T10:08:54.240Z,12.69
2022-10-15T10:11:23.476Z,12.68
2022-10-15T10:13:55.523Z,12.59
2022-10-15T10:16:23.262Z,12.58
2022-10-15T10:19:13.161Z,12.84
2022-10-15T10:21:43.252Z,12.69
2022-10-15T10:24:21.262Z,12.84
2022-10-15T10:26:48.818Z,12.84
2022-10-15T10:29:33.501Z,12.79
2022-10-15T10:32:34.570Z,12.86
2022-10-15T10:35:03.301Z,12.88
2022-10-15T10:37:41.695Z,12.94
2022-10-15T10:40:26.052Z,12.95
2022-10-15T10:43:16.953Z,12.86
2022-10-15T10:45:54.093Z,12.92
2022-10-15T10:48:27.221Z,12.99
2022-10-15T10:51:22.636Z,12.82
2022-10-15T10:54:06.063Z,12.84
2022-10-15T10:56:37.807Z,12.95
2022-10-15T10:59:21.160Z,13.09
2022-10-15T11:01:50.938Z,13.16
2022-10-15T11:04:26.025Z,13.29
2022-10-15T11:06:56.217Z,13.16
2022-10-15T11:09:32.532Z,13.04
2022-10-15T11:12:19.656Z,13.09
2022-10-15T11:15:19.061Z,13.08
2022-10-15T11:18:06.081Z,12.98
2022-10-15T11:20:57.787Z,13.20
2022-10-15T11:23:46.979Z,13.25
2022-10-15T11:26:52.132Z,13.28
2022-10-15T11:29:55.640Z,13.37
2022-10-15T11:33:06.776Z,13.30
2022-10-15T11:35:53.039Z,13.56
2022-10-15T11:38:23.885Z,13.71
2022-10-15T11:41:08.040Z,13.97
2022-10-15T11:43:53.890Z,13.95
2022-10-15T11:46:44.247Z,14.14
2022-10-15T11:49:50.957Z,14.50
2022-10-15T11:52:37.833Z,14.36
2022-10-15T11:55:17.379Z,14.54
2022-10-15T11:57:45.422Z,14.65
2022-10-15T12:00:36.218Z,14.94
2022-10-15T12:03:19.957Z,14.94
2022-10-15T12:05:58.814Z,15.11
2022-10-15T12:08:31.903Z,15.15
2022-10-15T12:11:06.348Z,15.46
2022-10-15T12:13:40.568Z,15.68
2022-10-15T12:16:28.612Z,15.82
2022-10-15T12:19:15.645Z,15.62
2022-10-15T12:21:45.695Z,15.85
2022-10-15T12:24:50.231Z,15.98
2022-10-15T12:27:20.876Z,15.88
2022-10-15T12:29:52.889Z,15.82
2022-10-15T12:32:27.355Z,15.78
2022-10-15T12:34:59.214Z,15.45
2022-10-15T12:37:28.200Z,15.73
2022-10-15T12:40:21.537Z,16.00
2022-10-15T12:43:17.756Z,15.82
2022-10-15T12:46:08.614Z,16.27
2022-10-15T12:48:44.147Z,16.35
2022-10-15T12:51:23.539Z,15.92
2022-10-15T12:53:51.930Z,16.12
2022-10-15T12:56:23.990Z,15.81
2022-10-15T12:58:52.936Z,15.70
2022-10-15T13:01:20.739Z,16.04
2022-10-15T13:03:49.490Z,16.14
2022-10-15T13:06:23.486Z,16.23
2022-10-15T13:09:00.273Z,16.16
2022-10-15T13:11:32.874Z,15.96
2022-10-15T13:14:26.207Z,15.78
2022-10-15T13:17:01.977Z,16.09
2022-10-15T13:19:39.725Z,16.31
2022-10-15T13:22:24.617Z,15.92
2022-10-15T13:24:53.307Z,15.98
2022-10-15T13:27:25.732Z,16.12
2022-10-15T13:30:14.431Z,15.85
2022-10-15T13:32:49.076Z,15.66
2022-10-15T13:35:29.371Z,15.64
2022-10-15T13:37:59.200Z,15.39
2022-10-15T13:40:30.409Z,15.20
2022-10-15T13:43:16.217Z,15.66
2022-10-15T13:45:53.698Z,15.81
2022-10-15T13:48:34.007Z,15.30
2022-10-15T13:51:03.689Z,15.23
2022-10-15T13:53:36.351Z,15.57
2022-10-15T13:56:18.048Z,15.37
2022-10-15T13:58:46.388Z,15.51
2022-10-15T14:01:14.856Z,15.59
2022-10-15T14:03:50.058Z,15.35
2022-10-15T14:06:25.339Z,14.86
2022-10-15T14:09:20.860Z,14.04
2022-10-15T14:11:52.816Z,13.63
2022-10-15T14:14:46.649Z,13.22
2022-10-15T14:17:22.915Z,12.64
2022-10-15T14:20:21.608Z,12.20
2022-10-15T14:22:44.182Z,11.96
2022-10-15T14:27:45.279Z,11.51
2022-10-15T14:30:43.221Z,11.29
2022-10-15T14:33:49.459Z,10.95
2022-10-15T14:36:20.201Z,10.73
2022-10-15T14:38:47.946Z,10.47
2022-10-15T14:41:54.944Z,10.23
2022-10-15T14:44:23.290Z,10.04
2022-10-15T14:46:53.249Z,9.89
2022-10-15T14:49:23.953Z,9.78
2022-10-15T14:52:08.281Z,9.62
2022-10-15T14:54:41.036Z,9.41
2022-10-15T14:57:19.158Z,9.18
2022-10-15T14:59:46.940Z,8.93
2022-10-15T15:02:16.111Z,8.72
2022-10-15T15:05:05.216Z,8.53
2022-10-15T15:07:32.967Z,8.34
2022-10-15T15:10:02.581Z,8.15
2022-10-15T15:12:31.789Z,8.00
2022-10-15T15:15:00.148Z,7.84
2022-10-15T15:17:29.119Z,7.67
2022-10-15T15:19:57.809Z,7.54
2022-10-15T15:22:28.617Z,7.40
2022-10-15T15:24:57.037Z,7.25
2022-10-15T15:27:29.877Z,7.15
2022-10-15T15:29:59.182Z,7.00
2022-10-15T15:32:27.625Z,6.91
2022-10-15T15:34:55.817Z,6.83
2022-10-15T15:37:24.084Z,6.72
2022-10-15T15:39:51.723Z,6.59
2022-10-15T15:42:23.946Z,6.42
2022-10-15T15:44:51.836Z,6.26
2022-10-15T15:47:20.495Z,6.10
2022-10-15T15:49:48.592Z,5.95
2022-10-15T15:52:19.059Z,5.84
2022-10-15T15:54:47.015Z,5.73
2022-10-15T15:57:15.905Z,5.58
2022-10-15T15:59:43.719Z,5.47
2022-10-15T16:02:12.079Z,5.39
2022-10-15T16:04:41.113Z,5.29
2022-10-15T16:07:11.723Z,5.21
2022-10-15T16:09:41.677Z,5.11
2022-10-15T16:12:09.246Z,5.00
2022-10-15T16:14:36.890Z,4.92
2022-10-15T16:17:04.626Z,4.85
2022-10-15T16:19:32.237Z,4.75
2022-10-15T16:21:59.984Z,4.68
2022-10-15T16:24:28.126Z,4.62
2022-10-15T16:26:55.733Z,4.57
2022-10-15T16:29:23.509Z,4.51
2022-10-15T16:31:51.641Z,4.49
2022-10-15T16:34:19.900Z,4.45
2022-10-15T16:36:47.713Z,4.39
2022-10-15T16:39:15.406Z,4.29
2022-10-15T16:41:43.104Z,4.19
2022-10-15T16:44:10.787Z,4.09
2022-10-15T16:46:38.470Z,4.05
2022-10-15T16:49:06.221Z,4.01
2022-10-15T16:51:35.623Z,3.99
2022-10-15T16:54:05.197Z,4.00
2022-10-15T16:56:34.648Z,3.96
2022-10-15T16:59:02.325Z,3.93
2022-10-15T17:01:30.254Z,3.92
2022-10-15T17:03:58.890Z,3.91
2022-10-15T17:06:28.325Z,3.92
2022-10-15T17:08:58.110Z,3.93
2022-10-15T17:11:33.577Z,3.93
2022-10-15T17:14:07.951Z,3.94
2022-10-15T17:16:39.773Z,3.96
2022-10-15T17:19:11.580Z,3.97
2022-10-15T17:21:42.345Z,3.97
2022-10-15T17:24:12.302Z,3.97
2022-10-15T17:26:40.801Z,3.95
2022-10-15T17:29:13.507Z,3.94
2022-10-15T17:31:41.376Z,3.92
2022-10-15T17:34:11.315Z,3.88
2022-10-15T17:36:45.028Z,3.85
2022-10-15T17:39:13.990Z,3.77
2022-10-15T17:41:42.184Z,3.70
2022-10-15T17:44:11.736Z,3.60
2022-10-15T17:46:43.057Z,3.52
2022-10-15T17:49:11.414Z,3.43
2022-10-15T17:51:40.690Z,3.37
2022-10-15T17:54:08.840Z,3.29
2022-10-15T17:56:37.054Z,3.22
2022-10-15T17:59:07.253Z,3.13
2022-10-15T18:04:25.364Z,3.04
2022-10-15T18:06:53.032Z,3.00
2022-10-15T18:09:27.094Z,2.94
2022-10-15T18:12:01.993Z,2.88
2022-10-15T18:14:32.515Z,2.81
2022-10-15T18:17:00.218Z,2.75
2022-10-15T18:19:28.361Z,2.72
2022-10-15T18:21:56.004Z,2.68
2022-10-15T18:24:24.276Z,2.66
2022-10-15T18:26:52.178Z,2.63
2022-10-15T18:29:20.170Z,2.60
2022-10-15T18:31:48.901Z,2.65
2022-10-15T18:34:18.859Z,2.60
2022-10-15T18:36:48.578Z,2.53
2022-10-15T18:39:16.237Z,2.49
2022-10-15T18:44:16.098Z,2.44
2022-10-15T18:46:45.191Z,2.38
2022-10-15T18:49:13.750Z,2.35
2022-10-15T18:51:41.713Z,2.30
2022-10-15T18:54:11.041Z,2.24
2022-10-15T18:56:39.347Z,2.21
2022-10-15T18:59:06.997Z,2.17
2022-10-15T19:01:35.823Z,2.12
2022-10-15T19:04:06.363Z,2.09
2022-10-15T19:06:36.860Z,2.04
2022-10-15T19:09:06.704Z,2.01
2022-10-15T19:11:37.580Z,1.99
2022-10-15T19:14:06.755Z,1.95
2022-10-15T19:16:34.434Z,1.89
2022-10-15T19:19:16.598Z,1.86
2022-10-15T19:21:44.788Z,1.81
2022-10-15T19:24:13.548Z,1.79
2022-10-15T19:26:41.197Z,1.76
2022-10-15T19:29:10.134Z,1.74
2022-10-15T19:31:39.992Z,1.71
2022-10-15T19:34:08.098Z,1.69
2022-10-15T19:36:38.215Z,1.66
2022-10-15T19:39:11.875Z,1.62
2022-10-15T19:41:40.885Z,1.60
2022-10-15T19:44:09.026Z,1.55
2022-10-15T19:46:36.980Z,1.54
2022-10-15T19:49:05.412Z,1.52
2022-10-15T19:51:33.556Z,1.51
2022-10-15T19:54:01.193Z,1.48
2022-10-15T19:56:33.085Z,1.46
2022-10-15T19:59:02.960Z,1.45
2022-10-15T20:01:30.812Z,1.51
2022-10-15T20:04:05.832Z,1.49
2022-10-15T20:06:36.238Z,1.51
2022-10-15T20:09:04.731Z,1.55
2022-10-15T20:11:32.607Z,1.55
2022-10-15T20:14:02.467Z,1.55
2022-10-15T20:16:33.073Z,1.52
2022-10-15T20:19:05.475Z,1.62
2022-10-15T20:21:34.619Z,1.63
2022-10-15T20:24:05.276Z,1.59
2022-10-15T20:26:33.144Z,1.57
2022-10-15T20:29:00.863Z,1.52
2022-10-15T20:31:32.991Z,1.52
2022-10-15T20:34:01.540Z,1.45
2022-10-15T20:36:29.890Z,1.40
2022-10-15T20:38:59.486Z,1.35
2022-10-15T20:41:27.937Z,1.25
2022-10-15T20:43:55.979Z,1.21
2022-10-15T20:46:27.719Z,1.24
2022-10-15T20:48:56.339Z,1.19
2022-10-15T20:51:27.645Z,1.19
2022-10-15T20:53:58.678Z,1.15
2022-10-15T20:56:26.378Z,1.13
2022-10-15T20:58:53.965Z,1.13
2022-10-15T21:01:22.383Z,1.14
2022-10-15T21:03:50.148Z,1.09
2022-10-15T21:06:18.052Z,1.02
2022-10-15T21:08:45.932Z,0.95
2022-10-15T21:11:13.608Z,0.89
2022-10-15T21:13:43.293Z,0.88
2022-10-15T21:16:10.983Z,0.83
2022-10-15T21:18:39.973Z,0.79
2022-10-15T21:21:11.915Z,0.72
2022-10-15T21:23:41.713Z,0.67
2022-10-15T21:26:14.082Z,0.63
2022-10-15T21:28:42.034Z,0.58
2022-10-15T21:31:16.941Z,0.56
2022-10-15T21:33:44.953Z,0.52
2022-10-15T21:36:13.690Z,0.50
2022-10-15T21:38:41.509Z,0.48
2022-10-15T21:41:09.124Z,0.47
2022-10-15T21:43:37.316Z,0.43
2022-10-15T21:46:09.880Z,0.41
2022-10-15T21:48:37.879Z,0.41
2022-10-15T21:51:08.885Z,0.39
2022-10-15T21:53:37.685Z,0.39
2022-10-15T21:56:05.814Z,0.39
2022-10-15T21:58:33.466Z,0.42
2022-10-15T22:01:15.953Z,0.42
2022-10-15T22:03:47.362Z,0.42
2022-10-15T22:06:15.376Z,0.42
2022-10-15T22:08:43.329Z,0.39
2022-10-15T22:11:17.827Z,0.45
2022-10-15T22:13:49.943Z,0.48
2022-10-15T22:16:17.749Z,0.51
2022-10-15T22:18:47.827Z,0.51
2022-10-15T22:21:21.598Z,0.59
2022-10-15T22:24:02.193Z,0.62
2022-10-15T22:26:32.776Z,0.64
2022-10-15T22:29:01.773Z,0.66
2022-10-15T22:31:29.854Z,0.65
2022-10-15T22:33:58.698Z,0.62
2022-10-15T22:36:27.969Z,0.62
2022-10-15T22:38:57.974Z,0.60
2022-10-15T22:41:25.878Z,0.58
2022-10-15T22:43:53.557Z,0.56
2022-10-15T22:46:21.290Z,0.54
2022-10-15T22:48:53.722Z,0.52
2022-10-15T22:51:21.634Z,0.54
2022-10-15T22:53:49.269Z,0.55
2022-10-15T22:56:18.808Z,0.55
2022-10-15T22:58:46.514Z,0.51
2022-10-15T23:01:22.498Z,0.51
2022-10-15T23:03:51.716Z,0.48
2022-10-15T23:06:19.957Z,0.45
2022-10-15T23:08:48.087Z,0.41
2022-10-15T23:11:34.058Z,0.41
2022-10-15T23:14:15.126Z,0.38
2022-10-15T23:16:44.396Z,0.36
2022-10-15T23:19:17.217Z,0.39
2022-10-15T23:21:46.732Z,0.34
2022-10-15T23:24:14.716Z,0.31
2022-10-15T23:26:42.595Z,0.30
2022-10-15T23:29:16.162Z,0.29
2022-10-15T23:31:43.832Z,0.26
2022-10-15T23:34:14.072Z,0.24
2022-10-15T23:36:41.940Z,0.23
2022-10-15T23:39:12.881Z,0.19
2022-10-15T23:41:41.919Z,0.16
2022-10-15T23:44:09.834Z,0.14
2022-10-15T23:46:38.328Z,0.18
2022-10-15T23:49:06.262Z,0.18
2022-10-15T23:51:34.899Z,0.20
2022-10-15T23:54:03.071Z,0.17
2022-10-15T23:56:31.312Z,0.14
2022-10-15T23:58:59.923Z,0.11
